KBRL/BRL METAR and TAF weather

Enter ICAO airport designator
Station Type Date Time Source
KBRL METAR 2022/06/27 17:53 UTC NOAA

KBRL 271753Z AUTO 36008KT 330V040 10SM CLR 26/10 A3030 RMK AO2 SLP258 T02560100 10256 20156 58002


Station Type Date Time Source
KBRL Decoded METAR 2022/06/27 17:53 UTC NOAA

BURLINGTON REGIONAL AIRPORT, IA, United States (KBRL) 40-46N 91-08W 211M
Jun 27, 2022 - 01:53 PM EDT / 2022.06.27 1753 UTC
Wind: from the N (360 degrees) at 9 MPH (8 KT) (direction variable):0
Visibility: 10 mile(s):0
Sky conditions: clear
Temperature: 78.1 F (25.6 C)
Dew Point: 50.0 F (10.0 C)
Relative Humidity: 37%
Pressure (altimeter): 30.3 in. Hg (1026 hPa)
Pressure tendency: 0.01 inches (0.2 hPa) lower than three hours ago
ob: KBRL 271753Z AUTO 36008KT 330V040 10SM CLR 26/10 A3030 RMK AO2 SLP258 T02560100 10256 20156 58002
cycle: 18

Station Type Date Time Source
KBRL TAF 2022/06/27 18:33 UTC NOAA

TAF KBRL 271730Z 2718/2818 34007G14KT P6SM FEW050
FM280100 25003KT P6SM SKC

Example: see airport list